METAR AND TAF INFORMATION
METAR FOR EDVE
ADDS - METARS form results

(0456 UTC 14 November 2018)
Data provider http://aviationweather.gov/metar/data/
 
Forecast for: EDVE (BRAUNSCHWEIG , DE)
Text: TAF EDVE 131700Z 1318/1321 24009KT 9999 FEW040
Forecast period: 1800 to 2100 UTC 13 November 2018
Forecast type: FROM: standard forecast or significant change
Winds: from the WSW (240 degrees) at 10 MPH (9 knots; 4.6 m/s)
Visibility: 6 or more miles 10+ km)
Ceiling: at least 12,000 feet AGL
Clouds: few clouds at 4000 feet AGL
Weather: no significant weather forecast for this period

 AIRPORT MAP

 RUNWAY INFORMATION
Runway 08 Runway length 7546 ft Runway width 148 ft
Runway elevation 273 ft Runway displaced threshold 0 ft Runway heading 85
Runway 26 Runway length 7546 ft Runway width 148 ft
Runway elevation 291 ft Runway displaced threshold 591 ft Runway heading 265
Runway 08R Runway length 2953 ft Runway width 98 ft
Runway elevation 0 ft Runway displaced threshold 0 ft Runway heading 85
Runway 26L Runway length 2953 ft Runway width 98 ft
Runway elevation 0 ft Runway displaced threshold 0 ft Runway heading 265

 AIRPORT FREQUENCIES
Type ACC Name BREMEN RAD Frequency 131.325 MHZ
Type AFIS Name BREMEN INF Frequency 119.825 MHZ
Type INFO Name INFO Frequency 120.05 MHZ
Type TWR Name TWR Frequency 120.05 MHZ

 AIRPORT NEAR NAVIGATION AIDS
Type NDB Name Braunschweig Frequency 427 KHZ



Powered by Virtual Airlines Manager [v2.6.2]